createdAt,value
2022-10-30T00:46:41.573Z,24.40
2022-10-30T00:49:15.258Z,24.40
2022-10-30T00:51:48.729Z,24.40
2022-10-30T00:54:19.633Z,24.40
2022-10-30T00:56:50.077Z,24.40
2022-10-30T00:59:24.041Z,24.50
2022-10-30T01:46:18.674Z,24.60
2022-10-30T01:49:37.911Z,24.80
2022-10-30T01:52:19.930Z,24.30
2022-10-30T01:54:59.098Z,24.90
2022-10-30T01:57:39.204Z,24.40
2022-10-30T02:47:35.446Z,24.30
2022-10-30T02:50:05.366Z,24.30
2022-10-30T02:52:36.959Z,24.30
2022-10-30T02:55:06.171Z,24.40
2022-10-30T02:57:34.936Z,24.40
2022-10-30T03:00:03.307Z,24.30
2022-10-30T03:46:52.356Z,24.40
2022-10-30T03:49:34.665Z,24.20
2022-10-30T03:52:09.162Z,24.20
2022-10-30T03:54:37.311Z,24.20
2022-10-30T03:57:05.609Z,24.10
2022-10-30T04:00:01.165Z,24.20
2022-10-30T04:46:50.417Z,24.50
2022-10-30T04:49:19.788Z,24.30
2022-10-30T04:51:47.956Z,24.30
2022-10-30T04:54:16.191Z,24.20
2022-10-30T04:56:44.493Z,24.20
2022-10-30T04:59:12.865Z,24.20
2022-10-30T05:31:02.967Z,24.30
2022-10-30T05:34:03.047Z,24.10
2022-10-30T05:36:33.457Z,24.10
2022-10-30T05:39:03.010Z,24.10
2022-10-30T05:41:35.898Z,24.10
2022-10-30T05:44:05.113Z,24.10
2022-10-30T05:46:36.226Z,24.10
2022-10-30T05:49:15.679Z,23.70
2022-10-30T05:51:44.494Z,24.10
2022-10-30T05:54:13.236Z,24.10
2022-10-30T05:56:54.784Z,24.10
2022-10-30T05:59:22.901Z,23.90
2022-10-30T06:01:52.991Z,24.00
2022-10-30T06:04:21.198Z,24.00
2022-10-30T06:06:50.142Z,24.00
2022-10-30T06:09:19.193Z,24.10
2022-10-30T06:12:19.630Z,24.10
2022-10-30T06:14:57.241Z,24.10
2022-10-30T06:17:27.084Z,24.10
2022-10-30T06:20:14.040Z,24.10
2022-10-30T06:22:58.051Z,24.10
2022-10-30T06:25:33.136Z,24.10
2022-10-30T06:28:13.577Z,24.10
2022-10-30T06:30:43.025Z,24.10
2022-10-30T06:33:13.144Z,24.10
2022-10-30T06:35:48.891Z,24.10
2022-10-30T06:38:18.291Z,24.10
2022-10-30T06:40:49.535Z,24.10
2022-10-30T06:43:34.778Z,24.10
2022-10-30T06:48:38.883Z,24.00
2022-10-30T06:51:07.369Z,24.10
2022-10-30T06:53:38.674Z,24.10
2022-10-30T06:56:29.421Z,24.10
2022-10-30T06:59:18.610Z,24.10
2022-10-30T07:01:55.701Z,24.10
2022-10-30T07:04:29.363Z,24.10
2022-10-30T07:07:00.176Z,24.20
2022-10-30T07:09:28.498Z,24.10
2022-10-30T07:11:57.313Z,24.00
2022-10-30T07:14:35.858Z,23.90
2022-10-30T07:17:15.040Z,23.90
2022-10-30T07:19:50.467Z,23.80
2022-10-30T07:22:19.919Z,23.70
2022-10-30T07:24:52.688Z,23.90
2022-10-30T07:27:50.019Z,23.60
2022-10-30T07:30:41.300Z,23.50
2022-10-30T07:33:47.744Z,23.40
2022-10-30T07:36:36.288Z,23.20
2022-10-30T07:39:23.419Z,23.50
2022-10-30T07:42:26.875Z,23.60
2022-10-30T07:45:13.365Z,23.80
2022-10-30T07:48:07.753Z,23.80
2022-10-30T07:50:43.397Z,23.80
2022-10-30T07:53:12.960Z,23.70
2022-10-30T07:55:43.833Z,23.60
2022-10-30T07:58:14.899Z,23.60
2022-10-30T08:00:49.200Z,23.60
2022-10-30T08:03:29.190Z,23.60
2022-10-30T08:06:26.363Z,23.50
2022-10-30T08:08:57.202Z,23.50
2022-10-30T08:11:28.534Z,23.50
2022-10-30T08:13:58.610Z,23.50
2022-10-30T08:16:26.873Z,23.60
2022-10-30T08:18:55.354Z,23.70
2022-10-30T08:21:26.388Z,23.80
2022-10-30T08:24:02.046Z,23.60
2022-10-30T08:26:33.434Z,23.60
2022-10-30T08:29:01.798Z,23.70
2022-10-30T08:31:32.060Z,23.80
2022-10-30T08:34:03.175Z,23.60
2022-10-30T08:36:50.785Z,23.60
2022-10-30T08:39:21.617Z,24.00
2022-10-30T08:41:52.457Z,23.70
2022-10-30T08:44:22.435Z,23.70
2022-10-30T08:47:09.172Z,23.70
2022-10-30T08:49:39.072Z,23.70
2022-10-30T08:52:09.807Z,23.70
2022-10-30T08:54:39.363Z,23.70
2022-10-30T08:57:07.860Z,23.70
2022-10-30T08:59:36.422Z,23.70
2022-10-30T09:02:04.982Z,23.60
2022-10-30T09:04:52.432Z,23.60
2022-10-30T09:07:58.461Z,23.60
2022-10-30T09:10:48.344Z,23.60
2022-10-30T09:13:16.990Z,23.60
2022-10-30T09:15:45.183Z,23.60
2022-10-30T09:18:14.070Z,23.60
2022-10-30T09:20:42.468Z,23.60
2022-10-30T09:23:10.577Z,23.50
2022-10-30T09:25:38.718Z,23.40
2022-10-30T09:28:38.237Z,23.40
2022-10-30T09:31:24.778Z,23.50
2022-10-30T09:33:53.549Z,23.40
2022-10-30T09:36:51.467Z,23.40
2022-10-30T09:39:21.138Z,23.40
2022-10-30T09:42:28.646Z,23.40
2022-10-30T09:45:35.671Z,23.40
2022-10-30T09:48:23.316Z,23.40
2022-10-30T09:51:22.570Z,23.40
2022-10-30T09:54:05.447Z,23.30
2022-10-30T09:56:46.279Z,23.30
2022-10-30T09:59:32.635Z,23.30
2022-10-30T10:02:10.677Z,23.40
2022-10-30T10:04:45.432Z,23.50
2022-10-30T10:07:21.607Z,23.60
2022-10-30T10:10:01.557Z,23.60
2022-10-30T10:13:00.217Z,23.60
2022-10-30T10:15:40.581Z,23.60
2022-10-30T10:18:23.973Z,23.70
2022-10-30T10:20:57.285Z,23.70
2022-10-30T10:23:33.653Z,23.60
2022-10-30T10:26:17.315Z,23.80
2022-10-30T10:29:01.346Z,23.90
2022-10-30T10:31:44.331Z,23.80
2022-10-30T10:34:40.624Z,23.80
2022-10-30T10:37:23.204Z,23.80
2022-10-30T10:40:10.442Z,23.80
2022-10-30T10:42:49.702Z,23.80
2022-10-30T10:45:29.018Z,23.80
2022-10-30T10:48:20.800Z,23.80
2022-10-30T10:50:53.521Z,23.80
2022-10-30T10:53:28.979Z,24.00
2022-10-30T10:56:01.507Z,23.80
2022-10-30T10:58:37.565Z,23.80
2022-10-30T11:01:10.449Z,23.80
2022-10-30T11:03:50.891Z,23.70
2022-10-30T11:06:28.209Z,23.80
2022-10-30T11:09:13.269Z,23.90
2022-10-30T11:11:41.504Z,23.90
2022-10-30T11:14:16.291Z,23.90
2022-10-30T11:17:00.095Z,23.90
2022-10-30T11:19:31.249Z,23.90
2022-10-30T11:22:01.968Z,23.90
2022-10-30T11:24:32.927Z,24.00
2022-10-30T11:27:19.062Z,24.00
2022-10-30T11:29:55.721Z,24.00
2022-10-30T11:32:28.710Z,24.00
2022-10-30T11:35:12.317Z,24.00
2022-10-30T11:37:44.275Z,24.00
2022-10-30T11:40:21.299Z,24.00
2022-10-30T11:43:01.092Z,24.00
2022-10-30T11:45:33.245Z,24.00
2022-10-30T11:48:03.107Z,24.00
2022-10-30T11:50:33.868Z,24.00
2022-10-30T11:53:11.759Z,24.00
2022-10-30T11:55:46.034Z,24.00
2022-10-30T11:58:27.218Z,24.10
2022-10-30T12:01:05.306Z,24.10
2022-10-30T12:03:38.880Z,24.10
2022-10-30T12:06:17.244Z,24.10
2022-10-30T12:09:01.830Z,24.10
2022-10-30T12:11:32.808Z,24.10
2022-10-30T12:14:01.621Z,24.10
2022-10-30T12:16:30.541Z,24.10
2022-10-30T12:19:05.596Z,24.10
2022-10-30T12:21:40.190Z,24.10
2022-10-30T12:24:19.408Z,24.30
2022-10-30T12:26:52.240Z,24.10
2022-10-30T12:29:26.349Z,24.30
2022-10-30T12:32:02.646Z,24.10
2022-10-30T12:34:39.490Z,24.10
2022-10-30T12:37:15.897Z,24.10
2022-10-30T12:39:59.610Z,24.10
2022-10-30T12:42:29.090Z,24.10
2022-10-30T12:45:13.322Z,24.10
2022-10-30T12:47:47.107Z,24.10
2022-10-30T12:50:23.654Z,24.10
2022-10-30T12:53:01.279Z,24.10
2022-10-30T12:55:42.468Z,24.10
2022-10-30T12:58:23.218Z,24.10
2022-10-30T13:01:01.922Z,24.10
2022-10-30T13:03:37.432Z,24.10
2022-10-30T13:06:14.300Z,24.20
2022-10-30T13:08:57.023Z,24.20
2022-10-30T13:11:40.160Z,24.30
2022-10-30T13:14:17.264Z,24.30
2022-10-30T13:16:45.574Z,24.30
2022-10-30T13:19:14.747Z,24.30
2022-10-30T13:21:53.609Z,24.30
2022-10-30T13:24:35.450Z,24.30
2022-10-30T13:27:11.403Z,24.30
2022-10-30T13:29:46.571Z,24.30
2022-10-30T13:32:29.907Z,24.30
2022-10-30T13:35:10.875Z,24.30
2022-10-30T13:37:48.118Z,24.30
2022-10-30T13:40:24.306Z,24.30
2022-10-30T13:43:03.302Z,24.30
2022-10-30T13:45:56.924Z,24.30
2022-10-30T13:48:51.517Z,24.30
2022-10-30T13:51:37.429Z,24.30
2022-10-30T13:54:15.543Z,24.40
2022-10-30T13:56:46.079Z,24.30
2022-10-30T13:59:42.986Z,24.30
2022-10-30T14:02:26.259Z,24.40
2022-10-30T14:05:01.672Z,24.30
2022-10-30T14:07:37.668Z,24.30
2022-10-30T14:10:12.658Z,24.40
2022-10-30T14:12:53.098Z,24.40
2022-10-30T14:15:33.236Z,24.40
2022-10-30T14:18:28.003Z,24.10
2022-10-30T14:20:59.114Z,24.30
2022-10-30T14:23:34.001Z,24.20
2022-10-30T14:26:24.361Z,24.20
2022-10-30T14:28:58.848Z,24.20
2022-10-30T14:31:36.570Z,24.20
2022-10-30T14:34:04.952Z,24.10
2022-10-30T14:36:55.095Z,24.10
2022-10-30T14:39:31.196Z,24.10
2022-10-30T14:42:12.283Z,24.10
2022-10-30T14:45:09.886Z,24.10
2022-10-30T14:47:51.713Z,24.10
2022-10-30T14:50:40.851Z,24.10
2022-10-30T14:53:28.364Z,24.00
2022-10-30T14:56:06.143Z,24.10
2022-10-30T14:58:36.418Z,24.10
2022-10-30T15:01:36.942Z,24.20
2022-10-30T15:04:21.871Z,24.30
2022-10-30T15:07:12.344Z,24.20
2022-10-30T15:09:54.827Z,24.30
2022-10-30T15:12:50.993Z,24.30
2022-10-30T15:15:20.264Z,24.30
2022-10-30T15:17:50.857Z,24.30
2022-10-30T15:20:24.914Z,24.30
2022-10-30T15:22:57.979Z,24.30
2022-10-30T15:25:37.881Z,24.30
2022-10-30T15:28:06.937Z,24.30
2022-10-30T15:30:35.070Z,24.40
2022-10-30T15:33:03.697Z,24.30
2022-10-30T15:35:33.471Z,24.30
2022-10-30T15:38:04.808Z,24.20
2022-10-30T15:40:34.442Z,24.30
2022-10-30T15:43:06.357Z,24.30
2022-10-30T15:45:37.437Z,24.30
2022-10-30T15:48:17.750Z,24.30
2022-10-30T15:50:59.862Z,24.30
2022-10-30T15:53:39.282Z,24.30
2022-10-30T15:56:17.167Z,24.40
2022-10-30T15:58:54.225Z,24.40
2022-10-30T16:01:28.455Z,24.40
2022-10-30T16:03:56.714Z,24.30
2022-10-30T16:06:29.353Z,24.30
2022-10-30T16:08:57.904Z,24.30
2022-10-30T16:11:27.682Z,24.50
2022-10-30T16:13:56.368Z,24.40
2022-10-30T16:16:30.406Z,24.30
2022-10-30T16:19:01.759Z,24.40
2022-10-30T16:21:32.737Z,24.40
2022-10-30T16:24:04.467Z,24.40
2022-10-30T16:26:35.838Z,24.40
2022-10-30T16:29:16.970Z,24.40
2022-10-30T16:31:50.055Z,24.40
2022-10-30T16:34:27.499Z,24.30
2022-10-30T16:36:58.980Z,24.40
2022-10-30T16:39:28.887Z,24.40
2022-10-30T16:41:59.060Z,24.40
2022-10-30T16:44:30.180Z,24.30
2022-10-30T16:47:15.621Z,24.40
2022-10-30T16:49:49.815Z,24.50
2022-10-30T16:52:26.616Z,24.40
2022-10-30T16:55:02.674Z,24.50
2022-10-30T16:57:34.338Z,24.60
2022-10-30T17:00:04.175Z,24.50
2022-10-30T17:02:36.193Z,24.50
2022-10-30T17:05:12.007Z,24.50
2022-10-30T17:07:54.620Z,24.60
2022-10-30T17:10:34.085Z,24.70
2022-10-30T17:13:36.252Z,24.70
2022-10-30T17:16:25.498Z,24.70
2022-10-30T17:18:56.150Z,24.70
2022-10-30T17:21:29.105Z,24.90
2022-10-30T17:24:01.002Z,24.70
2022-10-30T17:26:36.309Z,24.70
2022-10-30T17:29:04.555Z,24.70
2022-10-30T17:31:43.995Z,24.70
2022-10-30T17:34:18.944Z,25.20
2022-10-30T17:36:48.332Z,24.70
2022-10-30T17:39:18.186Z,24.80
2022-10-30T17:41:47.259Z,24.80
2022-10-30T17:44:22.044Z,24.70
2022-10-30T17:46:52.002Z,24.70
2022-10-30T17:49:27.805Z,24.70
2022-10-30T17:51:56.142Z,24.70
2022-10-30T17:54:25.971Z,24.70
2022-10-30T17:56:54.323Z,24.80
2022-10-30T17:59:22.902Z,24.70
2022-10-30T18:01:51.201Z,24.60
2022-10-30T18:04:21.590Z,24.70
2022-10-30T18:06:50.264Z,24.60
2022-10-30T18:09:18.388Z,24.60
2022-10-30T18:11:47.947Z,24.60
2022-10-30T18:14:16.145Z,24.50
2022-10-30T18:16:44.253Z,24.60
2022-10-30T18:19:13.145Z,24.60
2022-10-30T18:21:41.628Z,24.60
2022-10-30T18:24:13.434Z,24.30
2022-10-30T18:26:42.344Z,24.50
2022-10-30T18:29:12.489Z,24.50
2022-10-30T18:31:41.277Z,24.50
2022-10-30T18:34:17.094Z,24.50
2022-10-30T18:36:45.553Z,24.30
2022-10-30T18:39:13.750Z,24.40
2022-10-30T18:41:44.259Z,24.40
2022-10-30T18:44:16.650Z,24.30
2022-10-30T18:46:46.226Z,24.40
2022-10-30T18:49:14.556Z,24.40
2022-10-30T18:51:42.826Z,24.40
2022-10-30T18:54:16.437Z,24.40
2022-10-30T18:56:49.707Z,24.40
2022-10-30T18:59:19.191Z,24.40
2022-10-30T19:01:47.636Z,24.40
2022-10-30T19:04:21.698Z,24.40
2022-10-30T19:06:50.937Z,24.40
2022-10-30T19:09:19.128Z,24.50
2022-10-30T19:11:47.226Z,24.50
2022-10-30T19:14:16.036Z,24.50
2022-10-30T19:16:45.808Z,24.50
2022-10-30T19:19:14.879Z,24.30
2022-10-30T19:21:43.293Z,24.40
2022-10-30T19:24:15.100Z,24.40
2022-10-30T19:26:43.456Z,24.30
2022-10-30T19:29:11.934Z,24.30
2022-10-30T19:31:40.398Z,24.30
2022-10-30T19:34:10.341Z,24.30
2022-10-30T19:36:38.875Z,24.30
2022-10-30T19:39:14.286Z,24.30
2022-10-30T19:41:42.905Z,24.30
2022-10-30T19:44:11.744Z,24.30
2022-10-30T19:46:39.986Z,24.30
2022-10-30T19:49:18.544Z,24.30
2022-10-30T19:51:47.630Z,24.40
2022-10-30T19:54:15.908Z,24.50
2022-10-30T19:56:44.464Z,24.10
2022-10-30T19:59:15.757Z,24.20
2022-10-30T20:01:44.544Z,24.10
2022-10-30T20:04:14.365Z,23.90
2022-10-30T20:06:42.735Z,24.00
2022-10-30T20:09:12.359Z,23.90
2022-10-30T20:11:41.182Z,23.90
2022-10-30T20:14:09.468Z,23.80
2022-10-30T20:16:37.641Z,23.80
2022-10-30T20:19:27.395Z,23.80
2022-10-30T20:21:55.879Z,23.80
2022-10-30T20:24:24.713Z,23.90
2022-10-30T20:26:54.106Z,23.90
2022-10-30T20:29:22.437Z,23.80
2022-10-30T20:31:50.644Z,23.80
2022-10-30T20:34:20.128Z,23.80
2022-10-30T20:36:49.445Z,23.60
2022-10-30T20:39:17.580Z,23.70
2022-10-30T20:41:45.757Z,23.80
2022-10-30T20:44:14.446Z,23.80
2022-10-30T20:46:42.735Z,23.90
2022-10-30T20:49:17.146Z,23.90
2022-10-30T20:51:47.696Z,23.90
2022-10-30T20:54:16.243Z,23.90
2022-10-30T20:56:44.680Z,23.90
2022-10-30T20:59:12.999Z,23.80
2022-10-30T21:01:41.747Z,23.90
2022-10-30T21:04:09.970Z,23.90
2022-10-30T21:06:38.292Z,23.80
2022-10-30T21:09:08.304Z,23.80
2022-10-30T21:11:36.832Z,23.70
2022-10-30T21:14:05.516Z,23.70
2022-10-30T21:16:33.899Z,23.60
2022-10-30T21:19:02.044Z,23.60
2022-10-30T21:21:32.311Z,23.50
2022-10-30T21:24:01.424Z,23.50
2022-10-30T21:26:31.146Z,23.50
2022-10-30T21:28:59.789Z,23.40
2022-10-30T21:31:28.210Z,23.50
2022-10-30T21:33:56.541Z,23.40
2022-10-30T21:36:25.032Z,23.40
2022-10-30T21:38:53.294Z,23.40
2022-10-30T21:41:24.858Z,23.40
2022-10-30T21:43:57.280Z,23.60
2022-10-30T21:46:28.345Z,23.60
2022-10-30T21:48:57.196Z,23.60
2022-10-30T21:51:28.425Z,23.60
2022-10-30T21:53:57.350Z,23.70
2022-10-30T21:56:28.396Z,23.70
2022-10-30T21:59:00.386Z,23.70
2022-10-30T22:01:31.423Z,23.70
2022-10-30T22:04:01.284Z,23.70
2022-10-30T22:06:30.194Z,23.90
2022-10-30T22:08:59.403Z,23.70
2022-10-30T22:11:29.667Z,23.70
2022-10-30T22:14:01.123Z,23.80
2022-10-30T22:16:31.648Z,23.80
2022-10-30T22:19:00.943Z,23.90
2022-10-30T22:21:30.818Z,23.90
2022-10-30T22:24:01.009Z,23.90
2022-10-30T22:26:30.259Z,23.90
2022-10-30T22:29:01.958Z,23.90
2022-10-30T22:31:31.944Z,23.90
2022-10-30T22:34:02.016Z,23.90
2022-10-30T22:36:33.704Z,23.90
2022-10-30T22:39:04.685Z,23.90
2022-10-30T22:41:37.685Z,23.90
2022-10-30T22:44:09.310Z,23.90
2022-10-30T22:46:38.260Z,23.90
2022-10-30T22:49:07.241Z,23.90
2022-10-30T22:51:38.633Z,23.90
2022-10-30T22:54:12.120Z,23.90
2022-10-30T22:56:42.861Z,23.90
2022-10-30T22:59:15.025Z,23.90
2022-10-30T23:01:44.440Z,23.90
2022-10-30T23:04:15.433Z,24.00
2022-10-30T23:06:45.125Z,24.20
2022-10-30T23:09:18.613Z,24.40
2022-10-30T23:11:46.863Z,24.50
2022-10-30T23:14:16.656Z,24.50
2022-10-30T23:45:31.057Z,24.00
2022-10-30T23:47:59.809Z,24.10
2022-10-30T23:50:28.387Z,24.10
2022-10-30T23:52:56.523Z,24.00
2022-10-30T23:55:24.603Z,24.00
2022-10-30T23:57:52.711Z,24.00
